< < Back
Terminal Aerodrome Forecast


Current Version              Previous Versions:   1  2  3  4  5  6  7  8  9  

Terminal Aerodrome Forecast

743
FTUS42 KMLB 171300 AAA
TAFDAB
TAF AMD
KDAB 171302Z 1713/1812 26005KT 4SM BR FEW008
      TEMPO 1713/1714 2SM BR
     FM171400 32006KT P6SM SKC
     FM180000 00000KT P6SM SKC=

Latest METAR

848
SAUS80 KWBC 180800
MTRDAB
METAR KDAB 180753Z 00000KT 10SM FEW200 08/07 A3014 RMK AO2 SLP206
T00830072


USA.gov is the U.S. government's official web portal to all federal, state and local government web resources and services.